Time;durP1;ratioP1;P1;durP2;ratioP2;P2;SDS_P1;SDS_P2;PMS_P1;PMS_P2;Temp;Humidity;BMP_temperature;BMP_pressure;BME280_temperature;BME280_humidity;BME280_pressure;Samples;Min_cycle;Max_cycle;Signal;HPM_P1;HPM_P2
2021/06/12 00:02:31;;;;;;;;;;;;;;;21.08;60.59;99638.22;4356393;27;33694;-96
2021/06/12 00:05:42;;;;;;;;;;;;;;;21.16;59.39;99635.00;3903138;33;34697;-87
2021/06/12 00:08:14;;;;;;;;;;;;;;;21.16;59.83;99635.00;4267820;33;32556;-87
2021/06/12 00:10:47;;;;;;;;;;;;;;;21.42;59.87;99638.81;4257001;33;33865;-87
2021/06/12 00:13:20;;;;;;;;;;;;;;;21.26;60.14;99629.59;4269680;33;34763;-88
2021/06/12 00:19:27;;;;;;;;;;;;;;;21.34;58.96;99631.84;3963193;28;32606;-87
2021/06/12 00:22:00;;;;;;;;;;;;;;;21.52;58.64;99633.41;4284340;33;34877;-86
2021/06/12 00:24:32;;;;;;;;;;;;;;;21.42;58.72;99640.72;4286290;33;33938;-86
2021/06/12 00:27:13;;;;;;;;;;;;;;;21.45;59.50;99631.94;4267351;33;36605;-86
2021/06/12 00:29:45;;;;;;;;;;;;;;;21.33;59.50;99627.47;4245128;33;32882;-96
2021/06/12 00:32:57;;;;;;;;;;;;;;;21.41;60.92;99630.81;4323701;33;20433;-87
2021/06/12 00:35:30;;;;;;;;;;;;;;;21.20;60.41;99638.88;4312832;33;33716;-87
2021/06/12 00:38:03;;;;;;;;;;;;;;;21.11;60.51;99637.69;4324636;33;33744;-96
2021/06/12 00:40:41;;;;;;;;;;;;;;;21.07;59.88;99642.03;4306880;33;36600;-88
2021/06/12 00:43:14;;;;;;;;;;;;;;;20.90;60.73;99637.47;4329255;33;33716;-89
2021/06/12 00:45:57;;;;;;;;;;;;;;;21.04;60.64;99637.91;4384711;27;34415;31
2021/06/12 00:48:37;;;;;;;;;;;;;;;20.91;59.96;99643.78;4545843;27;34178;31
2021/06/12 00:51:12;;;;;;;;;;;;;;;20.96;60.42;99643.87;4373204;27;33543;-95
2021/06/12 00:54:12;;;;;;;;;;;;;;;20.86;60.93;99638.25;4249090;33;33611;-88
2021/06/12 00:56:48;;;;;;;;;;;;;;;20.88;61.37;99631.41;4325076;27;34082;-87
2021/06/12 00:59:24;;;;;;;;;;;;;;;20.67;62.31;99633.09;4565972;27;34536;-88
2021/06/12 01:01:56;;;;;;;;;;;;;;;20.81;60.17;99633.53;4302719;33;33222;-88
2021/06/12 01:04:29;;;;;;;;;;;;;;;20.71;60.92;99638.91;4290067;33;34073;-96
2021/06/12 01:07:02;;;;;;;;;;;;;;;20.81;60.31;99634.34;4285098;33;35328;-87
2021/06/12 01:09:34;;;;;;;;;;;;;;;20.44;61.09;99640.47;4291270;33;33556;-89
2021/06/12 01:12:12;;;;;;;;;;;;;;;20.12;62.24;99648.56;4303890;33;33849;-87
2021/06/12 01:14:48;;;;;;;;;;;;;;;20.25;62.07;99642.72;4305043;33;34548;-96
2021/06/12 01:17:23;;;;;;;;;;;;;;;20.16;61.88;99646.12;4281578;33;34427;-96
2021/06/12 01:20:08;;;;;;;;;;;;;;;20.38;62.56;99643.44;4275186;33;33803;-88
2021/06/12 01:22:46;;;;;;;;;;;;;;;20.30;61.96;99641.97;4299047;33;34239;-88
2021/06/12 01:25:22;;;;;;;;;;;;;;;20.21;62.40;99636.06;4311969;33;34892;-96
2021/06/12 01:29:01;;;;;;;;;;;;;;;20.17;62.50;99637.66;4382763;27;36502;31
2021/06/12 01:31:35;;;;;;;;;;;;;;;20.33;62.48;99633.22;4328062;27;34355;-88
2021/06/12 01:34:08;;;;;;;;;;;;;;;20.42;62.92;99641.84;4273123;33;32942;-89
2021/06/12 01:36:41;;;;;;;;;;;;;;;20.31;62.90;99637.28;4331235;27;33977;-96
2021/06/12 01:39:23;;;;;;;;;;;;;;;20.36;63.07;99634.59;4273378;33;34277;-96
2021/06/12 01:42:09;;;;;;;;;;;;;;;20.57;62.40;99638.44;4262050;33;34821;-91
2021/06/12 01:44:41;;;;;;;;;;;;;;;20.10;62.84;99637.00;4277250;33;33431;-89
2021/06/12 01:47:19;;;;;;;;;;;;;;;20.31;61.96;99631.81;4276986;33;34416;-89
2021/06/12 01:49:52;;;;;;;;;;;;;;;20.41;61.77;99638.25;4277859;33;34032;-90
2021/06/12 01:52:24;;;;;;;;;;;;;;;19.93;63.13;99648.00;4265805;33;34623;-89
2021/06/12 01:55:08;;;;;;;;;;;;;;;19.82;63.31;99641.56;4400082;27;33367;-88
2021/06/12 02:01:06;;;;;;;;;;;;;;;19.37;64.93;99646.00;4401446;27;20068;-93
2021/06/12 02:04:13;;;;;;;;;;;;;;;19.52;64.37;99648.19;4528853;27;34406;-88
2021/06/12 02:06:49;;;;;;;;;;;;;;;19.40;64.83;99642.78;4356716;27;32969;-89
2021/06/12 02:09:29;;;;;;;;;;;;;;;19.50;64.41;99642.09;4337412;27;33602;-88
2021/06/12 02:12:03;;;;;;;;;;;;;;;19.69;64.44;99648.16;4304637;33;34850;-88
2021/06/12 02:14:35;;;;;;;;;;;;;;;19.74;64.00;99655.63;4304897;33;34108;-96
2021/06/12 02:17:31;;;;;;;;;;;;;;;19.72;63.43;99655.88;4231866;33;35040;-88
2021/06/12 02:20:05;;;;;;;;;;;;;;;19.59;63.96;99656.22;4307767;33;33943;-96
2021/06/12 02:23:03;;;;;;;;;;;;;;;19.55;64.11;99652.31;4279636;33;32678;-88
2021/06/12 02:25:35;;;;;;;;;;;;;;;19.53;64.28;99651.75;4275302;33;33960;-88
2021/06/12 02:28:10;;;;;;;;;;;;;;;19.70;64.45;99654.47;4276174;33;33320;-91
2021/06/12 02:30:49;;;;;;;;;;;;;;;19.53;64.71;99655.28;4261390;33;32777;-96
2021/06/12 02:33:22;;;;;;;;;;;;;;;19.53;64.88;99651.75;4274304;33;33885;-96
2021/06/12 02:35:55;;;;;;;;;;;;;;;19.66;64.57;99648.66;4260320;33;32914;-89
2021/06/12 02:38:28;;;;;;;;;;;;;;;19.65;64.59;99649.75;4275248;33;33287;-89
2021/06/12 02:41:00;;;;;;;;;;;;;;;19.61;65.20;99650.50;4277761;33;34381;-96
2021/06/12 02:43:54;;;;;;;;;;;;;;;19.56;64.99;99660.28;4273154;33;34320;-93
2021/06/12 02:46:28;;;;;;;;;;;;;;;19.61;64.46;99655.97;4285056;33;34378;-88
2021/06/12 02:49:02;;;;;;;;;;;;;;;19.68;64.84;99653.91;4272484;33;32510;-88
2021/06/12 02:51:35;;;;;;;;;;;;;;;19.72;64.81;99660.56;4263119;33;34498;-96
2021/06/12 02:54:32;;;;;;;;;;;;;;;19.72;64.97;99655.06;4255048;33;35611;-88
2021/06/12 02:57:05;;;;;;;;;;;;;;;19.76;64.61;99657.06;4274954;33;33904;-96
2021/06/12 03:00:11;;;;;;;;;;;;;;;19.85;64.63;99659.41;4167062;33;35275;-95
2021/06/12 03:02:45;;;;;;;;;;;;;;;19.97;64.39;99667.53;4263360;33;35181;-88
2021/06/12 03:05:19;;;;;;;;;;;;;;;19.88;64.68;99667.97;4286746;33;35999;-96
2021/06/12 03:08:00;;;;;;;;;;;;;;;19.63;65.52;99667.53;4278116;33;32617;-96
2021/06/12 03:10:34;;;;;;;;;;;;;;;19.87;64.48;99669.03;4248893;33;33606;-96
2021/06/12 03:13:18;;;;;;;;;;;;;;;20.01;63.73;99668.69;4262030;33;33684;-96
2021/06/12 03:15:57;;;;;;;;;;;;;;;19.75;64.40;99671.84;4262758;33;32360;-88
2021/06/12 03:18:46;;;;;;;;;;;;;;;19.91;64.42;99675.69;4274030;33;33515;-95
2021/06/12 03:21:53;;;;;;;;;;;;;;;20.00;64.21;99680.75;4282227;33;33225;-87
2021/06/12 03:24:28;;;;;;;;;;;;;;;20.10;63.84;99679.00;4326008;28;33753;-96
2021/06/12 03:27:12;;;;;;;;;;;;;;;20.13;63.73;99674.91;4301524;33;34535;-87
2021/06/12 03:30:02;;;;;;;;;;;;;;;20.14;63.76;99693.03;4264974;33;34048;-88
2021/06/12 03:32:57;;;;;;;;;;;;;;;20.20;63.54;99678.31;4321531;28;33262;-96
2021/06/12 03:35:37;;;;;;;;;;;;;;;20.20;63.59;99677.47;4252260;33;34441;-87
2021/06/12 03:38:09;;;;;;;;;;;;;;;20.24;63.38;99673.97;4262190;33;34013;-90
2021/06/12 03:40:42;;;;;;;;;;;;;;;20.40;63.20;99666.75;4260192;33;34528;-88
2021/06/12 03:43:15;;;;;;;;;;;;;;;20.18;63.44;99685.97;4263895;33;32743;-96
2021/06/12 03:46:42;;;;;;;;;;;;;;;20.56;63.04;99677.97;4006561;33;37122;-88
2021/06/12 03:49:15;;;;;;;;;;;;;;;20.64;62.42;99683.84;4277853;33;32293;-88
2021/06/12 03:51:49;;;;;;;;;;;;;;;20.60;62.44;99676.38;4267586;33;34372;-93
2021/06/12 03:54:31;;;;;;;;;;;;;;;20.63;63.05;99676.69;4253565;33;33726;-88
2021/06/12 03:57:04;;;;;;;;;;;;;;;20.70;62.67;99675.69;4260667;33;33953;-95
2021/06/12 03:59:56;;;;;;;;;;;;;;;20.86;62.70;99677.53;4273342;33;34693;-88
2021/06/12 04:02:38;;;;;;;;;;;;;;;20.81;60.99;99683.78;4261924;33;32817;-91
2021/06/12 04:05:12;;;;;;;;;;;;;;;20.64;62.04;99670.12;4250211;33;31726;-94
2021/06/12 04:07:51;;;;;;;;;;;;;;;20.93;61.75;99675.41;4243940;33;33472;-96
2021/06/12 04:10:41;;;;;;;;;;;;;;;20.75;61.90;99686.75;4280906;33;33405;-95
2021/06/12 04:13:25;;;;;;;;;;;;;;;20.47;62.70;99685.81;4279819;33;34277;-87
2021/06/12 04:15:58;;;;;;;;;;;;;;;20.41;63.00;99681.34;4292658;33;33590;-87
2021/06/12 04:18:30;;;;;;;;;;;;;;;20.66;62.01;99680.87;4280737;33;36598;-88
2021/06/12 04:21:06;;;;;;;;;;;;;;;20.55;62.33;99677.12;4292568;33;34427;-95
2021/06/12 04:23:52;;;;;;;;;;;;;;;20.30;63.13;99694.09;4290395;33;34597;-87
2021/06/12 04:26:59;;;;;;;;;;;;;;;20.37;63.56;99699.38;4267064;33;33132;-93
2021/06/12 04:29:42;;;;;;;;;;;;;;;20.12;63.89;99695.22;4252741;33;33941;-89
2021/06/12 04:32:15;;;;;;;;;;;;;;;19.90;64.92;99697.88;4268167;33;34726;-88
2021/06/12 04:34:49;;;;;;;;;;;;;;;20.26;64.19;99688.25;4280027;33;35028;-96
2021/06/12 04:37:44;;;;;;;;;;;;;;;20.52;62.34;99685.03;4260826;33;33920;-88
2021/06/12 04:40:42;;;;;;;;;;;;;;;20.38;62.75;99682.66;4276263;33;34720;-88
2021/06/12 04:43:14;;;;;;;;;;;;;;;20.74;61.61;99687.81;4275344;33;33972;-88
2021/06/12 04:45:47;;;;;;;;;;;;;;;20.78;61.97;99688.97;4274321;33;34698;-94
2021/06/12 04:48:20;;;;;;;;;;;;;;;21.01;61.41;99685.12;4251255;33;35051;-88
2021/06/12 04:50:53;;;;;;;;;;;;;;;21.30;60.91;99676.59;4262936;33;34312;-87
2021/06/12 04:53:30;;;;;;;;;;;;;;;21.56;60.40;99677.72;4264978;33;33987;-87
2021/06/12 04:56:03;;;;;;;;;;;;;;;21.49;60.84;99680.63;4259160;33;34522;-94
2021/06/12 04:58:36;;;;;;;;;;;;;;;21.75;60.69;99680.06;4252183;33;33607;-95
2021/06/12 05:01:10;;;;;;;;;;;;;;;21.73;59.78;99682.25;4261271;33;34907;-96
2021/06/12 05:03:42;;;;;;;;;;;;;;;21.66;59.81;99679.72;4272074;33;35052;-94
2021/06/12 05:06:30;;;;;;;;;;;;;;;21.43;60.51;99681.69;4241455;33;35684;-95
2021/06/12 05:09:02;;;;;;;;;;;;;;;21.66;60.66;99686.06;4247182;33;33901;-89
2021/06/12 05:11:35;;;;;;;;;;;;;;;21.42;60.34;99688.28;4247051;33;33763;-89
2021/06/12 05:14:08;;;;;;;;;;;;;;;21.48;59.81;99690.00;4237355;33;33451;-89
2021/06/12 05:16:45;;;;;;;;;;;;;;;21.34;60.87;99691.50;4234454;33;33892;-88
2021/06/12 05:19:18;;;;;;;;;;;;;;;21.81;58.92;99687.25;4234430;33;33106;-88
2021/06/12 05:21:51;;;;;;;;;;;;;;;21.99;58.48;99684.09;4248754;33;33982;-88
2021/06/12 05:24:23;;;;;;;;;;;;;;;22.34;57.69;99690.13;4247128;33;33788;-88
2021/06/12 05:26:56;;;;;;;;;;;;;;;22.48;56.06;99687.72;4240170;33;33779;-88
2021/06/12 05:29:28;;;;;;;;;;;;;;;22.72;55.43;99688.09;4239071;33;33666;-89
2021/06/12 05:32:01;;;;;;;;;;;;;;;22.71;55.22;99690.03;4249989;33;33706;-94
2021/06/12 05:34:34;;;;;;;;;;;;;;;22.45;55.95;99688.25;4227222;33;34663;-94
2021/06/12 05:37:25;;;;;;;;;;;;;;;22.71;56.13;99694.69;4226955;33;36524;-88
2021/06/12 05:39:57;;;;;;;;;;;;;;;22.67;56.38;99708.19;4239100;33;32071;-89
2021/06/12 05:42:30;;;;;;;;;;;;;;;22.98;56.48;99702.81;4239447;33;33925;-95
2021/06/12 05:45:07;;;;;;;;;;;;;;;23.01;56.62;99707.78;4240114;33;34403;-96
2021/06/12 05:47:44;;;;;;;;;;;;;;;22.91;56.58;99711.31;4243665;33;33690;-90
2021/06/12 05:50:16;;;;;;;;;;;;;;;23.07;55.99;99714.97;4243953;33;33904;-88
2021/06/12 05:52:49;;;;;;;;;;;;;;;23.18;55.90;99710.31;4245545;33;33560;-87
2021/06/12 05:55:22;;;;;;;;;;;;;;;23.31;56.51;99711.75;4245422;33;32082;-94
2021/06/12 05:57:56;;;;;;;;;;;;;;;23.28;57.22;99715.06;4234429;33;34607;-87
2021/06/12 06:00:29;;;;;;;;;;;;;;;23.14;57.87;99717.47;4247211;33;33064;-88
2021/06/12 06:03:02;;;;;;;;;;;;;;;23.35;57.03;99714.78;4247043;33;34142;-95
2021/06/12 06:05:34;;;;;;;;;;;;;;;23.51;55.72;99705.41;4263531;33;34258;-94
2021/06/12 06:08:12;;;;;;;;;;;;;;;23.47;55.33;99701.53;4272793;33;35004;-88
2021/06/12 06:10:45;;;;;;;;;;;;;;;23.49;55.61;99707.62;4283449;33;33320;-95
2021/06/12 06:13:19;;;;;;;;;;;;;;;23.62;53.26;99703.50;4283316;33;34813;-95
2021/06/12 06:15:51;;;;;;;;;;;;;;;23.83;53.00;99707.06;4278920;33;35177;-88
2021/06/12 06:18:24;;;;;;;;;;;;;;;23.76;53.35;99701.84;4283775;33;34629;-88
2021/06/12 06:20:57;;;;;;;;;;;;;;;23.97;53.93;99697.19;4274007;33;33786;-92
2021/06/12 06:23:30;;;;;;;;;;;;;;;23.66;52.01;99699.09;4272215;33;34473;-94
2021/06/12 06:26:03;;;;;;;;;;;;;;;23.77;52.95;99713.72;4275008;33;34606;-88
2021/06/12 06:28:36;;;;;;;;;;;;;;;23.85;53.38;99715.06;4285413;33;33876;-94
2021/06/12 06:31:09;;;;;;;;;;;;;;;24.10;51.86;99709.59;4285959;33;32827;-88
2021/06/12 06:33:42;;;;;;;;;;;;;;;24.15;52.17;99708.75;4274405;33;34621;-88
2021/06/12 06:36:14;;;;;;;;;;;;;;;24.20;51.89;99710.69;4284897;33;34902;-88
2021/06/12 06:38:46;;;;;;;;;;;;;;;24.23;52.68;99704.59;4275098;33;33386;-94
2021/06/12 06:41:19;;;;;;;;;;;;;;;24.12;52.62;99704.63;4273427;33;34365;-88
2021/06/12 06:43:52;;;;;;;;;;;;;;;24.23;51.71;99704.59;4275853;33;33970;-94
2021/06/12 06:46:26;;;;;;;;;;;;;;;24.37;51.82;99702.91;4270098;33;34929;-96
2021/06/12 06:48:59;;;;;;;;;;;;;;;24.46;52.47;99701.22;4285896;33;32298;-96
2021/06/12 06:51:31;;;;;;;;;;;;;;;24.58;50.40;99694.53;4284899;33;33560;-96
2021/06/12 06:54:04;;;;;;;;;;;;;;;24.82;50.79;99703.03;4286434;33;34880;-96
2021/06/12 06:56:37;;;;;;;;;;;;;;;24.74;49.74;99703.66;4282146;33;34013;-94
2021/06/12 06:59:10;;;;;;;;;;;;;;;24.83;49.97;99697.22;4274057;33;34562;-94
2021/06/12 07:01:45;;;;;;;;;;;;;;;25.17;48.78;99696.50;4283486;33;33369;-88
2021/06/12 07:04:17;;;;;;;;;;;;;;;25.01;47.49;99700.47;4275517;33;34129;-96
2021/06/12 07:06:50;;;;;;;;;;;;;;;25.49;48.05;99700.75;4284126;33;32675;-87
2021/06/12 07:09:24;;;;;;;;;;;;;;;25.45;46.78;99704.37;4277593;33;34364;-95
2021/06/12 07:11:59;;;;;;;;;;;;;;;25.47;46.82;99700.22;4275764;33;34071;-96
2021/06/12 07:14:33;;;;;;;;;;;;;;;25.85;45.99;99706.03;4263627;33;34047;-94
2021/06/12 07:17:05;;;;;;;;;;;;;;;25.88;45.31;99701.84;4272345;33;33288;-96
2021/06/12 07:19:45;;;;;;;;;;;;;;;26.07;45.78;99699.19;4276721;33;33909;-95
2021/06/12 07:22:19;;;;;;;;;;;;;;;26.23;47.80;99694.34;4276904;33;32427;-91
2021/06/12 07:24:52;;;;;;;;;;;;;;;25.93;45.88;99687.13;4286724;33;34510;-92
2021/06/12 07:27:24;;;;;;;;;;;;;;;26.13;44.48;99688.91;4285809;33;33629;-88
2021/06/12 07:29:58;;;;;;;;;;;;;;;26.51;45.34;99695.44;4286713;33;33849;-96
2021/06/12 07:32:31;;;;;;;;;;;;;;;26.43;46.89;99696.06;4272843;33;33778;-90
2021/06/12 07:35:04;;;;;;;;;;;;;;;25.87;44.61;99695.47;4274140;33;34060;-90
2021/06/12 07:37:37;;;;;;;;;;;;;;;26.25;44.04;99697.63;4284882;33;32821;-90
2021/06/12 07:40:10;;;;;;;;;;;;;;;26.44;47.93;99700.50;4274438;33;33637;-96
2021/06/12 07:42:43;;;;;;;;;;;;;;;26.71;47.24;99699.91;4273502;33;33920;-90
2021/06/12 07:45:16;;;;;;;;;;;;;;;26.15;46.24;99704.09;4276899;33;33964;-96
2021/06/12 07:47:50;;;;;;;;;;;;;;;26.52;44.88;99702.59;4258777;33;35682;-96
2021/06/12 07:50:36;;;;;;;;;;;;;;;26.61;46.29;99700.81;4259580;33;32077;-92
2021/06/12 07:53:08;;;;;;;;;;;;;;;26.78;47.37;99703.16;4263988;33;34943;-96
2021/06/12 07:56:04;;;;;;;;;;;;;;;26.65;50.42;99712.16;4266225;33;32349;-92
2021/06/12 07:58:37;;;;;;;;;;;;;;;26.80;46.86;99707.56;4259605;33;33153;-91
2021/06/12 08:01:10;;;;;;;;;;;;;;;27.15;44.07;99703.50;4233560;33;34494;-96
2021/06/12 08:04:10;;;;;;;;;;;;;;;27.17;45.12;99704.03;4279478;33;33275;-96
2021/06/12 08:07:02;;;;;;;;;;;;;;;27.49;44.74;99702.47;4267879;33;34814;-96
2021/06/12 08:10:02;;;;;;;;;;;;;;;27.85;44.41;99698.31;4270224;33;33010;-96
2021/06/12 08:15:45;;;;;;;;;;;;;;;28.14;41.08;99693.34;4146242;33;34814;-95
2021/06/12 08:21:32;;;;;;;;;;;;;;;28.67;40.67;99702.38;4237650;33;36026;-91
2021/06/12 08:24:24;;;;;;;;;;;;;;;28.57;41.69;99695.03;4326144;28;34635;-91
2021/06/12 08:27:39;;;;;;;;;;;;;;;28.56;40.38;99701.72;4233644;28;34335;-96
2021/06/12 08:30:42;;;;;;;;;;;;;;;28.63;41.23;99702.16;4259014;28;34076;-96
2021/06/12 08:33:42;;;;;;;;;;;;;;;28.58;43.42;99696.69;4231112;33;35304;-94
2021/06/12 08:36:31;;;;;;;;;;;;;;;28.38;42.29;99699.88;4227537;33;32761;-96
2021/06/12 08:39:15;;;;;;;;;;;;;;;28.60;40.23;99700.00;4239208;33;32082;-96
2021/06/12 08:42:11;;;;;;;;;;;;;;;29.05;40.58;99708.50;4246829;33;33491;-96
2021/06/12 08:45:00;;;;;;;;;;;;;;;28.91;41.67;99702.16;4265051;33;32430;-96
2021/06/12 08:47:37;;;;;;;;;;;;;;;29.18;39.71;99706.84;4295697;33;33942;-92
2021/06/12 08:50:10;;;;;;;;;;;;;;;28.86;37.79;99703.09;4294319;33;33100;-92
2021/06/12 08:52:43;;;;;;;;;;;;;;;29.16;38.73;99705.50;4307056;33;34220;-92
2021/06/12 08:55:46;;;;;;;;;;;;;;;29.28;39.80;99704.97;4298749;27;35651;-91
2021/06/12 08:58:19;;;;;;;;;;;;;;;29.71;38.69;99696.97;4461771;27;34401;-90
2021/06/12 09:01:03;;;;;;;;;;;;;;;;;;;;;
2021/06/12 09:03:56;;;;;;;;;;;;;;;29.92;39.93;99690.91;4292516;27;35626;-91
2021/06/12 09:07:34;;;;;;;;;;;;;;;30.06;35.43;99683.31;4346911;27;33408;-90
2021/06/12 09:10:29;;;;;;;;;;;;;;;30.46;36.38;99676.94;4409164;27;33746;31
2021/06/12 09:14:02;;;;;;;;;;;;;;;30.37;35.08;99682.44;4155744;27;33554;-89
2021/06/12 09:16:45;;;;;;;;;;;;;;;30.10;33.53;99681.50;4352091;28;34431;-91
2021/06/12 09:19:43;;;;;;;;;;;;;;;30.37;32.32;99684.44;4428078;28;20000;-96
2021/06/12 09:26:21;;;;;;;;;;;;;;;30.86;36.27;99679.69;4274361;28;34612;-96
2021/06/12 09:29:10;;;;;;;;;;;;;;;31.12;35.01;99681.72;4234346;33;31385;-94
2021/06/12 09:31:46;;;;;;;;;;;;;;;31.34;35.90;99677.97;4222647;33;36305;-96
2021/06/12 09:34:25;;;;;;;;;;;;;;;31.30;34.70;99680.59;4231951;33;35092;-93
2021/06/12 09:36:58;;;;;;;;;;;;;;;31.38;36.12;99678.94;4233320;33;35348;-90
2021/06/12 09:39:32;;;;;;;;;;;;;;;31.19;33.57;99682.06;4234543;33;34363;-96
2021/06/12 09:42:05;;;;;;;;;;;;;;;31.29;34.36;99675.34;4220636;33;34730;-96
2021/06/12 09:44:44;;;;;;;;;;;;;;;31.02;33.67;99682.88;4218000;33;34515;-89
2021/06/12 09:47:23;;;;;;;;;;;;;;;31.07;32.74;99671.53;4231372;33;34015;-96
2021/06/12 09:49:59;;;;;;;;;;;;;;;30.99;36.62;99672.38;4218488;33;34856;-90
2021/06/12 09:52:45;;;;;;;;;;;;;;;30.91;34.12;99678.72;4231114;33;33792;-91
2021/06/12 09:55:21;;;;;;;;;;;;;;;31.09;34.88;99683.19;4217441;33;35024;-89
2021/06/12 09:57:58;;;;;;;;;;;;;;;30.95;33.59;99682.50;4257704;33;33080;-96
2021/06/12 10:00:35;;;;;;;;;;;;;;;31.20;36.09;99680.06;4243655;33;35767;-95
2021/06/12 10:03:17;;;;;;;;;;;;;;;31.31;36.65;99678.63;4258901;33;35636;-89
2021/06/12 10:06:08;;;;;;;;;;;;;;;31.61;33.41;99676.81;4258836;33;33723;-95
2021/06/12 10:08:42;;;;;;;;;;;;;;;31.58;34.02;99671.09;4259469;33;33516;-92
2021/06/12 10:11:15;;;;;;;;;;;;;;;32.36;33.19;99670.06;4247471;33;34932;-92
2021/06/12 10:13:48;;;;;;;;;;;;;;;33.70;35.54;99671.31;4245648;33;35636;-89
2021/06/12 10:16:21;;;;;;;;;;;;;;;33.88;29.46;99665.53;4258690;33;34718;-91
2021/06/12 10:18:54;;;;;;;;;;;;;;;34.69;33.34;99668.69;4242164;33;34251;-90
2021/06/12 10:21:28;;;;;;;;;;;;;;;34.97;32.05;99674.41;4244549;33;34007;-95
2021/06/12 10:24:04;;;;;;;;;;;;;;;35.32;45.90;99676.69;4244066;33;34817;-94
2021/06/12 10:26:37;;;;;;;;;;;;;;;36.22;32.45;99659.50;4281394;33;34878;-93
2021/06/12 10:29:22;;;;;;;;;;;;;;;36.36;33.41;99661.06;4247232;33;33902;-92
2021/06/12 10:31:57;;;;;;;;;;;;;;;36.19;30.22;99654.59;4244825;33;35179;-95
2021/06/12 10:34:30;;;;;;;;;;;;;;;35.55;35.30;99639.59;4245951;33;34917;-94
2021/06/12 10:37:06;;;;;;;;;;;;;;;35.85;28.37;99647.69;4244392;33;33368;-93
2021/06/12 10:39:39;;;;;;;;;;;;;;;36.14;32.48;99648.41;4246283;33;33230;-89
2021/06/12 10:42:22;;;;;;;;;;;;;;;36.46;29.55;99640.00;4246648;33;34113;-93
2021/06/12 10:44:56;;;;;;;;;;;;;;;36.34;29.86;99632.50;4246294;33;34808;-93
2021/06/12 10:47:41;;;;;;;;;;;;;;;36.47;28.83;99636.00;4250534;33;34548;-94
2021/06/12 10:50:31;;;;;;;;;;;;;;;36.08;26.51;99630.19;4244878;33;34545;-96
2021/06/12 10:53:22;;;;;;;;;;;;;;;35.74;28.78;99619.25;4268545;33;34040;-92
2021/06/12 10:55:56;;;;;;;;;;;;;;;34.99;30.41;99618.72;4259396;33;33058;-90
2021/06/12 10:58:31;;;;;;;;;;;;;;;34.50;28.18;99627.22;4260833;33;33612;-95
2021/06/12 11:01:16;;;;;;;;;;;;;;;34.72;29.14;99619.47;4242963;33;33662;-90
2021/06/12 11:04:09;;;;;;;;;;;;;;;34.59;28.34;99613.88;4274250;33;32602;-94
2021/06/12 11:07:23;;;;;;;;;;;;;;;33.67;28.47;99621.59;4255750;33;34151;-96
2021/06/12 11:10:08;;;;;;;;;;;;;;;34.01;30.92;99610.34;4270918;33;33668;-93
2021/06/12 11:12:41;;;;;;;;;;;;;;;34.18;31.79;99609.28;4271169;33;33948;-91
2021/06/12 11:15:19;;;;;;;;;;;;;;;33.57;30.83;99606.03;4271035;33;34000;-95
2021/06/12 11:18:11;;;;;;;;;;;;;;;32.70;30.49;99603.97;4258264;33;34447;-92
2021/06/12 11:20:46;;;;;;;;;;;;;;;33.18;32.28;99616.56;4257004;33;35397;-96
2021/06/12 11:24:01;;;;;;;;;;;;;;;31.94;32.27;99597.22;4162358;33;33936;-94
2021/06/12 11:26:54;;;;;;;;;;;;;;;31.67;32.82;99596.47;4268079;33;33963;-93
2021/06/12 11:29:27;;;;;;;;;;;;;;;31.21;34.88;99592.44;4255331;33;35987;-91
2021/06/12 11:32:19;;;;;;;;;;;;;;;31.34;36.41;99589.44;4256714;33;34475;-91
2021/06/12 11:35:11;;;;;;;;;;;;;;;31.83;35.55;99583.63;4248228;33;31865;-93
2021/06/12 11:37:53;;;;;;;;;;;;;;;32.30;35.05;99584.75;4249443;33;34317;-96
2021/06/12 11:40:50;;;;;;;;;;;;;;;32.64;33.59;99582.91;4272430;33;34183;-96
2021/06/12 11:43:40;;;;;;;;;;;;;;;32.57;32.46;99572.25;4263386;33;34582;-94
2021/06/12 11:46:28;;;;;;;;;;;;;;;33.24;31.46;99573.25;4271009;33;32785;-92
2021/06/12 11:49:05;;;;;;;;;;;;;;;33.45;31.18;99566.78;4249302;33;33971;-96
2021/06/12 11:51:54;;;;;;;;;;;;;;;33.83;31.86;99553.69;4085921;33;36004;-89
2021/06/12 11:54:31;;;;;;;;;;;;;;;33.55;31.73;99559.91;4335328;27;34918;-90
2021/06/12 11:57:09;;;;;;;;;;;;;;;32.70;33.94;99554.41;4303790;27;33825;-90
2021/06/12 12:00:25;;;;;;;;;;;;;;;33.24;33.68;99550.03;4153449;33;36696;-93
2021/06/12 12:03:16;;;;;;;;;;;;;;;32.59;33.44;99552.34;4295052;33;37487;-92
2021/06/12 12:06:12;;;;;;;;;;;;;;;32.82;33.40;99547.25;4430215;28;34405;-89
2021/06/12 12:08:47;;;;;;;;;;;;;;;32.76;32.21;99552.25;4288779;33;34502;-90
2021/06/12 12:11:19;;;;;;;;;;;;;;;32.43;34.74;99544.56;4290564;33;33946;-95
2021/06/12 12:14:09;;;;;;;;;;;;;;;32.62;35.21;99540.47;4259535;33;35341;-89
2021/06/12 12:16:48;;;;;;;;;;;;;;;32.68;31.99;99542.75;4273727;33;33667;-91
2021/06/12 12:19:42;;;;;;;;;;;;;;;32.23;31.58;99532.16;4325611;28;1330093;-88
2021/06/12 12:22:18;;;;;;;;;;;;;;;32.49;34.43;99525.59;4277012;33;34646;-96
2021/06/12 12:25:03;;;;;;;;;;;;;;;33.12;32.34;99531.19;4293746;27;34383;-96
2021/06/12 12:28:01;;;;;;;;;;;;;;;32.39;32.14;99538.00;4291603;28;36695;-89
2021/06/12 12:31:15;;;;;;;;;;;;;;;32.63;31.05;99534.53;4213476;33;33240;-91
2021/06/12 12:33:49;;;;;;;;;;;;;;;32.18;31.08;99522.00;4272475;33;34129;-96
2021/06/12 12:36:23;;;;;;;;;;;;;;;32.98;33.19;99519.44;4246520;33;34434;-90
2021/06/12 12:39:00;;;;;;;;;;;;;;;33.03;31.02;99510.88;4272074;33;35432;-93
2021/06/12 12:41:38;;;;;;;;;;;;;;;32.92;31.55;99513.25;4248377;33;32734;-96
2021/06/12 12:44:26;;;;;;;;;;;;;;;31.95;31.32;99510.28;4283553;33;33334;-96
2021/06/12 12:46:59;;;;;;;;;;;;;;;32.64;34.50;99511.00;4292868;33;34148;-95
2021/06/12 12:49:37;;;;;;;;;;;;;;;32.67;31.93;99510.34;4276005;33;33065;-88
2021/06/12 12:52:26;;;;;;;;;;;;;;;33.20;31.64;99505.09;4287165;33;33177;-89
2021/06/12 12:55:05;;;;;;;;;;;;;;;33.36;30.94;99496.88;4286807;33;34308;-91
2021/06/12 12:57:41;;;;;;;;;;;;;;;33.56;33.76;99506.34;4288523;33;36026;-90
2021/06/12 13:00:18;;;;;;;;;;;;;;;33.79;32.95;99505.94;4297662;33;33870;-90
2021/06/12 13:02:52;;;;;;;;;;;;;;;33.78;28.79;99496.72;4299400;33;32895;-95
2021/06/12 13:05:38;;;;;;;;;;;;;;;33.70;33.19;99493.97;4281838;33;34725;-96
2021/06/12 13:08:12;;;;;;;;;;;;;;;33.82;29.63;99482.84;4279054;33;34143;-89
2021/06/12 13:10:53;;;;;;;;;;;;;;;34.09;29.14;99483.28;4273416;33;34601;-96
2021/06/12 13:13:57;;;;;;;;;;;;;;;33.84;29.52;99482.47;4259239;33;35515;-89
2021/06/12 13:16:31;;;;;;;;;;;;;;;34.11;30.16;99478.13;4473423;27;33375;-89
2021/06/12 13:19:18;;;;;;;;;;;;;;;33.36;30.53;99459.66;4659566;27;36242;-89
2021/06/12 13:22:21;;;;;;;;;;;;;;;33.40;30.27;99468.97;4577985;27;32623;31
2021/06/12 13:25:29;;;;;;;;;;;;;;;33.61;31.20;99466.91;4335045;27;19985;-92
2021/06/12 13:28:04;;;;;;;;;;;;;;;32.95;29.36;99465.03;4298397;27;35477;-96
2021/06/12 13:34:03;;;;;;;;;;;;;;;;;;;;;
2021/06/12 13:36:52;;;;;;;;;;;;;;;32.28;31.94;99462.09;4333931;27;20029;-90
2021/06/12 13:39:45;;;;;;;;;;;;;;;33.14;31.29;99463.66;4358147;27;35086;31
2021/06/12 13:42:47;;;;;;;;;;;;;;;32.90;30.75;99463.22;4440701;27;34344;31
2021/06/12 13:45:21;;;;;;;;;;;;;;;32.96;33.53;99466.63;4349544;28;35524;-91
2021/06/12 13:48:02;;;;;;;;;;;;;;;32.68;30.88;99467.25;4529567;27;33331;31
2021/06/12 13:50:38;;;;;;;;;;;;;;;32.89;30.36;99452.37;4746130;27;34961;31
2021/06/12 13:53:18;;;;;;;;;;;;;;;33.37;29.82;99450.91;4379571;28;34348;-96
2021/06/12 13:56:27;;;;;;;;;;;;;;;33.09;29.42;99456.31;4306789;27;20161;-89
2021/06/12 13:59:00;;;;;;;;;;;;;;;32.87;30.54;99452.72;4399552;27;32937;-89
2021/06/12 14:01:37;;;;;;;;;;;;;;;33.54;30.64;99449.88;4446620;27;33938;-90
2021/06/12 14:04:51;;;;;;;;;;;;;;;33.91;31.24;99443.47;4486494;27;31834;-90
2021/06/12 14:07:40;;;;;;;;;;;;;;;34.35;31.21;99448.44;4304373;33;34313;-92
2021/06/12 14:13:58;;;;;;;;;;;;;;;34.07;31.85;99447.19;4301689;27;20001;31
2021/06/12 14:16:33;;;;;;;;;;;;;;;34.40;29.89;99442.59;4276252;33;34587;-92
2021/06/12 14:19:21;;;;;;;;;;;;;;;34.39;27.83;99440.94;4287989;33;34787;-96
2021/06/12 14:22:06;;;;;;;;;;;;;;;34.30;29.79;99449.53;4273222;33;32230;-96
2021/06/12 14:24:59;;;;;;;;;;;;;;;34.26;28.41;99443.78;4225027;33;32819;-88
2021/06/12 14:27:34;;;;;;;;;;;;;;;34.20;30.22;99439.56;4244200;33;33605;-96